sensor_id;sensor_type;location;lat;lon;timestamp;P1;durP1;ratioP1;P2;durP2;ratioP2
39486;SDS011;25173;50.430;18.926;2023-02-01T00:00:52;10.90;;;4.43;;
39486;SDS011;25173;50.430;18.926;2023-02-01T00:03:53;8.38;;;4.88;;
39486;SDS011;25173;50.430;18.926;2023-02-01T00:06:54;7.55;;;4.78;;
39486;SDS011;25173;50.430;18.926;2023-02-01T00:09:54;12.98;;;7.20;;
39486;SDS011;25173;50.430;18.926;2023-02-01T00:12:55;5.90;;;3.95;;
39486;SDS011;25173;50.430;18.926;2023-02-01T00:16:02;6.50;;;4.35;;
39486;SDS011;25173;50.430;18.926;2023-02-01T00:19:11;4.90;;;3.15;;
39486;SDS011;25173;50.430;18.926;2023-02-01T00:22:14;5.63;;;3.28;;
39486;SDS011;25173;50.430;18.926;2023-02-01T00:25:14;10.95;;;5.07;;
39486;SDS011;25173;50.430;18.926;2023-02-01T00:28:15;8.35;;;4.82;;
39486;SDS011;25173;50.430;18.926;2023-02-01T00:31:16;13.75;;;6.22;;
39486;SDS011;25173;50.430;18.926;2023-02-01T00:34:16;27.90;;;7.45;;
39486;SDS011;25173;50.430;18.926;2023-02-01T00:37:17;21.20;;;8.18;;
39486;SDS011;25173;50.430;18.926;2023-02-01T00:40:18;6.30;;;3.13;;
39486;SDS011;25173;50.430;18.926;2023-02-01T00:43:19;5.47;;;3.13;;
39486;SDS011;25173;50.430;18.926;2023-02-01T00:46:20;4.65;;;2.75;;
39486;SDS011;25173;50.430;18.926;2023-02-01T00:49:21;9.23;;;3.72;;
39486;SDS011;25173;50.430;18.926;2023-02-01T00:52:22;9.65;;;5.05;;
39486;SDS011;25173;50.430;18.926;2023-02-01T00:55:23;20.08;;;6.53;;
39486;SDS011;25173;50.430;18.926;2023-02-01T00:58:24;9.90;;;4.85;;
39486;SDS011;25173;50.430;18.926;2023-02-01T01:01:26;4.03;;;2.58;;
39486;SDS011;25173;50.430;18.926;2023-02-01T01:04:29;13.32;;;6.70;;
39486;SDS011;25173;50.430;18.926;2023-02-01T01:07:29;4.13;;;2.13;;
39486;SDS011;25173;50.430;18.926;2023-02-01T01:10:30;7.30;;;2.85;;
39486;SDS011;25173;50.430;18.926;2023-02-01T01:13:31;31.70;;;11.10;;
39486;SDS011;25173;50.430;18.926;2023-02-01T01:16:33;9.13;;;6.60;;
39486;SDS011;25173;50.430;18.926;2023-02-01T01:19:34;22.10;;;10.60;;
39486;SDS011;25173;50.430;18.926;2023-02-01T01:22:35;7.43;;;3.20;;
39486;SDS011;25173;50.430;18.926;2023-02-01T01:25:39;6.95;;;2.70;;
39486;SDS011;25173;50.430;18.926;2023-02-01T01:28:40;15.52;;;5.82;;
39486;SDS011;25173;50.430;18.926;2023-02-01T01:31:41;16.13;;;8.00;;
39486;SDS011;25173;50.430;18.926;2023-02-01T01:34:41;12.30;;;7.47;;
39486;SDS011;25173;50.430;18.926;2023-02-01T01:37:42;11.60;;;4.25;;
39486;SDS011;25173;50.430;18.926;2023-02-01T01:40:46;3.63;;;1.50;;
39486;SDS011;25173;50.430;18.926;2023-02-01T01:43:54;14.32;;;3.95;;
39486;SDS011;25173;50.430;18.926;2023-02-01T01:47:00;8.85;;;3.97;;
39486;SDS011;25173;50.430;18.926;2023-02-01T01:50:02;44.70;;;25.95;;
39486;SDS011;25173;50.430;18.926;2023-02-01T01:53:07;4.40;;;2.10;;
39486;SDS011;25173;50.430;18.926;2023-02-01T01:56:11;4.13;;;2.28;;
39486;SDS011;25173;50.430;18.926;2023-02-01T01:59:13;11.48;;;4.05;;
39486;SDS011;25173;50.430;18.926;2023-02-01T02:02:15;6.35;;;2.83;;
39486;SDS011;25173;50.430;18.926;2023-02-01T02:05:16;5.47;;;3.20;;
39486;SDS011;25173;50.430;18.926;2023-02-01T02:08:18;7.00;;;2.58;;
39486;SDS011;25173;50.430;18.926;2023-02-01T02:11:20;9.80;;;2.55;;
39486;SDS011;25173;50.430;18.926;2023-02-01T02:14:21;7.18;;;2.55;;
39486;SDS011;25173;50.430;18.926;2023-02-01T02:20:44;6.85;;;4.57;;
39486;SDS011;25173;50.430;18.926;2023-02-01T02:40:57;11.30;;;3.78;;
39486;SDS011;25173;50.430;18.926;2023-02-01T02:43:58;4.70;;;2.10;;
39486;SDS011;25173;50.430;18.926;2023-02-01T02:47:24;16.13;;;5.80;;
39486;SDS011;25173;50.430;18.926;2023-02-01T02:50:34;17.45;;;9.52;;
39486;SDS011;25173;50.430;18.926;2023-02-01T02:57:26;8.25;;;3.53;;
39486;SDS011;25173;50.430;18.926;2023-02-01T03:00:49;4.80;;;2.33;;
39486;SDS011;25173;50.430;18.926;2023-02-01T03:04:10;16.83;;;8.85;;
39486;SDS011;25173;50.430;18.926;2023-02-01T03:11:03;10.02;;;3.60;;
39486;SDS011;25173;50.430;18.926;2023-02-01T03:14:04;4.05;;;1.80;;
39486;SDS011;25173;50.430;18.926;2023-02-01T03:17:08;3.63;;;2.10;;
39486;SDS011;25173;50.430;18.926;2023-02-01T03:20:18;5.57;;;1.95;;
39486;SDS011;25173;50.430;18.926;2023-02-01T03:23:23;5.43;;;2.93;;
39486;SDS011;25173;50.430;18.926;2023-02-01T03:26:30;4.88;;;2.40;;
39486;SDS011;25173;50.430;18.926;2023-02-01T03:30:18;5.78;;;2.58;;
39486;SDS011;25173;50.430;18.926;2023-02-01T03:33:04;4.07;;;2.30;;
39486;SDS011;25173;50.430;18.926;2023-02-01T03:36:20;4.55;;;3.05;;
39486;SDS011;25173;50.430;18.926;2023-02-01T03:42:43;4.78;;;2.47;;
39486;SDS011;25173;50.430;18.926;2023-02-01T03:45:50;2.95;;;1.40;;
39486;SDS011;25173;50.430;18.926;2023-02-01T03:48:56;5.43;;;2.00;;
39486;SDS011;25173;50.430;18.926;2023-02-01T03:51:58;3.65;;;1.77;;
39486;SDS011;25173;50.430;18.926;2023-02-01T03:55:00;9.73;;;2.67;;
39486;SDS011;25173;50.430;18.926;2023-02-01T03:58:18;4.82;;;2.28;;
39486;SDS011;25173;50.430;18.926;2023-02-01T04:01:20;7.53;;;2.05;;
39486;SDS011;25173;50.430;18.926;2023-02-01T04:04:21;5.38;;;2.00;;
39486;SDS011;25173;50.430;18.926;2023-02-01T04:07:26;5.78;;;2.22;;
39486;SDS011;25173;50.430;18.926;2023-02-01T04:10:27;7.50;;;3.20;;
39486;SDS011;25173;50.430;18.926;2023-02-01T04:13:28;8.32;;;3.47;;
39486;SDS011;25173;50.430;18.926;2023-02-01T04:16:30;5.55;;;3.13;;
39486;SDS011;25173;50.430;18.926;2023-02-01T04:19:31;8.93;;;5.57;;
39486;SDS011;25173;50.430;18.926;2023-02-01T04:22:32;14.38;;;7.45;;
39486;SDS011;25173;50.430;18.926;2023-02-01T04:25:33;7.28;;;4.43;;
39486;SDS011;25173;50.430;18.926;2023-02-01T04:28:33;5.35;;;2.50;;
39486;SDS011;25173;50.430;18.926;2023-02-01T04:31:34;6.43;;;2.90;;
39486;SDS011;25173;50.430;18.926;2023-02-01T04:34:35;4.88;;;2.80;;
39486;SDS011;25173;50.430;18.926;2023-02-01T04:37:36;4.97;;;2.55;;
39486;SDS011;25173;50.430;18.926;2023-02-01T04:40:37;8.00;;;3.33;;
39486;SDS011;25173;50.430;18.926;2023-02-01T04:43:38;5.30;;;3.05;;
39486;SDS011;25173;50.430;18.926;2023-02-01T04:46:38;5.95;;;3.35;;
39486;SDS011;25173;50.430;18.926;2023-02-01T04:49:42;12.60;;;4.45;;
39486;SDS011;25173;50.430;18.926;2023-02-01T04:52:43;8.82;;;3.40;;
39486;SDS011;25173;50.430;18.926;2023-02-01T04:56:09;7.05;;;3.38;;
39486;SDS011;25173;50.430;18.926;2023-02-01T04:59:35;7.82;;;3.42;;
39486;SDS011;25173;50.430;18.926;2023-02-01T05:02:36;9.45;;;3.95;;
39486;SDS011;25173;50.430;18.926;2023-02-01T05:05:36;8.45;;;3.42;;
39486;SDS011;25173;50.430;18.926;2023-02-01T05:08:37;8.52;;;3.25;;
39486;SDS011;25173;50.430;18.926;2023-02-01T05:11:37;11.23;;;4.57;;
39486;SDS011;25173;50.430;18.926;2023-02-01T05:14:57;11.50;;;5.03;;
39486;SDS011;25173;50.430;18.926;2023-02-01T05:18:07;11.32;;;4.30;;
39486;SDS011;25173;50.430;18.926;2023-02-01T05:21:08;13.45;;;4.82;;
39486;SDS011;25173;50.430;18.926;2023-02-01T05:24:09;8.30;;;3.72;;
39486;SDS011;25173;50.430;18.926;2023-02-01T05:27:09;13.60;;;4.80;;
39486;SDS011;25173;50.430;18.926;2023-02-01T05:30:10;11.30;;;4.18;;
39486;SDS011;25173;50.430;18.926;2023-02-01T05:33:11;11.88;;;5.20;;
39486;SDS011;25173;50.430;18.926;2023-02-01T05:36:11;12.52;;;4.35;;
39486;SDS011;25173;50.430;18.926;2023-02-01T05:39:12;8.60;;;3.58;;
39486;SDS011;25173;50.430;18.926;2023-02-01T05:42:13;10.93;;;3.83;;
39486;SDS011;25173;50.430;18.926;2023-02-01T05:45:16;12.10;;;4.07;;
39486;SDS011;25173;50.430;18.926;2023-02-01T05:48:17;12.75;;;5.60;;
39486;SDS011;25173;50.430;18.926;2023-02-01T05:51:18;11.60;;;4.45;;
39486;SDS011;25173;50.430;18.926;2023-02-01T05:54:18;16.45;;;7.00;;
39486;SDS011;25173;50.430;18.926;2023-02-01T05:57:19;77.07;;;28.05;;
39486;SDS011;25173;50.430;18.926;2023-02-01T06:00:20;118.53;;;43.83;;
39486;SDS011;25173;50.430;18.926;2023-02-01T06:03:21;90.85;;;34.17;;
39486;SDS011;25173;50.430;18.926;2023-02-01T06:06:22;75.07;;;23.92;;
39486;SDS011;25173;50.430;18.926;2023-02-01T06:09:22;23.15;;;7.30;;
39486;SDS011;25173;50.430;18.926;2023-02-01T06:12:23;14.38;;;5.30;;
39486;SDS011;25173;50.430;18.926;2023-02-01T06:15:23;34.38;;;11.43;;
39486;SDS011;25173;50.430;18.926;2023-02-01T06:18:24;10.85;;;4.70;;
39486;SDS011;25173;50.430;18.926;2023-02-01T06:21:25;19.40;;;6.82;;
39486;SDS011;25173;50.430;18.926;2023-02-01T06:24:26;32.65;;;11.45;;
39486;SDS011;25173;50.430;18.926;2023-02-01T06:27:26;70.20;;;20.92;;
39486;SDS011;25173;50.430;18.926;2023-02-01T06:30:27;17.13;;;5.88;;
39486;SDS011;25173;50.430;18.926;2023-02-01T06:33:28;13.45;;;4.30;;
39486;SDS011;25173;50.430;18.926;2023-02-01T06:36:29;16.17;;;5.28;;
39486;SDS011;25173;50.430;18.926;2023-02-01T06:39:29;18.05;;;7.25;;
39486;SDS011;25173;50.430;18.926;2023-02-01T06:42:30;16.75;;;5.88;;
39486;SDS011;25173;50.430;18.926;2023-02-01T06:45:31;16.20;;;4.80;;
39486;SDS011;25173;50.430;18.926;2023-02-01T06:48:32;9.55;;;3.85;;
39486;SDS011;25173;50.430;18.926;2023-02-01T06:51:33;105.97;;;35.85;;
39486;SDS011;25173;50.430;18.926;2023-02-01T06:54:33;11.13;;;5.13;;
39486;SDS011;25173;50.430;18.926;2023-02-01T06:57:34;15.18;;;6.72;;
39486;SDS011;25173;50.430;18.926;2023-02-01T07:00:35;8.32;;;3.80;;
39486;SDS011;25173;50.430;18.926;2023-02-01T07:03:36;9.48;;;3.88;;
39486;SDS011;25173;50.430;18.926;2023-02-01T07:06:38;10.32;;;2.95;;
39486;SDS011;25173;50.430;18.926;2023-02-01T07:09:39;6.85;;;2.80;;
39486;SDS011;25173;50.430;18.926;2023-02-01T07:12:40;12.13;;;4.57;;
39486;SDS011;25173;50.430;18.926;2023-02-01T07:15:41;10.77;;;3.53;;
39486;SDS011;25173;50.430;18.926;2023-02-01T07:18:41;12.98;;;4.80;;
39486;SDS011;25173;50.430;18.926;2023-02-01T07:21:42;13.95;;;4.75;;
39486;SDS011;25173;50.430;18.926;2023-02-01T07:24:43;19.08;;;6.38;;
39486;SDS011;25173;50.430;18.926;2023-02-01T07:27:44;14.80;;;5.53;;
39486;SDS011;25173;50.430;18.926;2023-02-01T07:30:44;9.65;;;4.70;;
39486;SDS011;25173;50.430;18.926;2023-02-01T07:33:50;11.13;;;4.75;;
39486;SDS011;25173;50.430;18.926;2023-02-01T07:36:56;15.00;;;6.32;;
39486;SDS011;25173;50.430;18.926;2023-02-01T07:39:57;14.10;;;5.80;;
39486;SDS011;25173;50.430;18.926;2023-02-01T07:42:57;10.75;;;4.68;;
39486;SDS011;25173;50.430;18.926;2023-02-01T07:45:59;10.18;;;4.20;;
39486;SDS011;25173;50.430;18.926;2023-02-01T07:49:00;9.82;;;5.00;;
39486;SDS011;25173;50.430;18.926;2023-02-01T07:52:01;14.95;;;4.57;;
39486;SDS011;25173;50.430;18.926;2023-02-01T07:55:02;11.15;;;5.32;;
39486;SDS011;25173;50.430;18.926;2023-02-01T07:58:03;11.07;;;4.53;;
39486;SDS011;25173;50.430;18.926;2023-02-01T08:01:03;10.35;;;4.35;;
39486;SDS011;25173;50.430;18.926;2023-02-01T08:04:24;11.50;;;4.03;;
39486;SDS011;25173;50.430;18.926;2023-02-01T08:07:25;8.70;;;3.30;;
39486;SDS011;25173;50.430;18.926;2023-02-01T08:10:25;9.77;;;3.92;;
39486;SDS011;25173;50.430;18.926;2023-02-01T08:13:26;11.80;;;5.00;;
39486;SDS011;25173;50.430;18.926;2023-02-01T08:16:27;13.75;;;4.70;;
39486;SDS011;25173;50.430;18.926;2023-02-01T08:19:28;10.23;;;4.65;;
39486;SDS011;25173;50.430;18.926;2023-02-01T08:22:31;10.60;;;5.07;;
39486;SDS011;25173;50.430;18.926;2023-02-01T08:25:32;13.07;;;4.72;;
39486;SDS011;25173;50.430;18.926;2023-02-01T08:28:35;11.43;;;4.70;;
39486;SDS011;25173;50.430;18.926;2023-02-01T08:31:37;11.48;;;4.43;;
39486;SDS011;25173;50.430;18.926;2023-02-01T08:34:40;9.45;;;4.72;;
39486;SDS011;25173;50.430;18.926;2023-02-01T08:37:41;10.30;;;5.00;;
39486;SDS011;25173;50.430;18.926;2023-02-01T08:40:42;13.70;;;6.15;;
39486;SDS011;25173;50.430;18.926;2023-02-01T08:43:42;11.93;;;5.60;;
39486;SDS011;25173;50.430;18.926;2023-02-01T08:46:43;13.15;;;5.68;;
39486;SDS011;25173;50.430;18.926;2023-02-01T08:49:44;13.50;;;5.30;;
39486;SDS011;25173;50.430;18.926;2023-02-01T08:52:45;15.15;;;5.75;;
39486;SDS011;25173;50.430;18.926;2023-02-01T08:55:46;9.73;;;4.65;;
39486;SDS011;25173;50.430;18.926;2023-02-01T08:58:47;9.10;;;4.70;;
39486;SDS011;25173;50.430;18.926;2023-02-01T09:01:47;15.65;;;6.40;;
39486;SDS011;25173;50.430;18.926;2023-02-01T09:04:48;16.27;;;6.05;;
39486;SDS011;25173;50.430;18.926;2023-02-01T09:07:49;13.85;;;5.30;;
39486;SDS011;25173;50.430;18.926;2023-02-01T09:10:49;13.20;;;5.47;;
39486;SDS011;25173;50.430;18.926;2023-02-01T09:13:50;13.90;;;5.55;;
39486;SDS011;25173;50.430;18.926;2023-02-01T09:16:51;13.82;;;6.40;;
39486;SDS011;25173;50.430;18.926;2023-02-01T09:19:52;15.27;;;6.13;;
39486;SDS011;25173;50.430;18.926;2023-02-01T09:22:52;15.55;;;5.80;;
39486;SDS011;25173;50.430;18.926;2023-02-01T09:25:58;10.77;;;4.65;;
39486;SDS011;25173;50.430;18.926;2023-02-01T09:28:59;11.55;;;4.60;;
39486;SDS011;25173;50.430;18.926;2023-02-01T09:32:00;11.48;;;4.70;;
39486;SDS011;25173;50.430;18.926;2023-02-01T09:35:01;11.02;;;4.57;;
39486;SDS011;25173;50.430;18.926;2023-02-01T09:38:02;10.50;;;4.28;;
39486;SDS011;25173;50.430;18.926;2023-02-01T09:41:07;10.27;;;4.40;;
39486;SDS011;25173;50.430;18.926;2023-02-01T09:47:54;15.10;;;7.63;;
39486;SDS011;25173;50.430;18.926;2023-02-01T09:50:59;14.18;;;5.97;;
39486;SDS011;25173;50.430;18.926;2023-02-01T09:54:11;12.77;;;6.10;;
39486;SDS011;25173;50.430;18.926;2023-02-01T09:57:22;93.38;;;41.90;;
39486;SDS011;25173;50.430;18.926;2023-02-01T10:00:35;16.90;;;9.38;;
39486;SDS011;25173;50.430;18.926;2023-02-01T10:03:39;39.88;;;21.20;;
39486;SDS011;25173;50.430;18.926;2023-02-01T10:10:29;20.85;;;11.98;;
39486;SDS011;25173;50.430;18.926;2023-02-01T10:17:12;11.27;;;4.80;;
39486;SDS011;25173;50.430;18.926;2023-02-01T10:20:48;11.60;;;4.50;;
39486;SDS011;25173;50.430;18.926;2023-02-01T10:24:01;8.52;;;4.00;;
39486;SDS011;25173;50.430;18.926;2023-02-01T10:27:19;18.05;;;5.50;;
39486;SDS011;25173;50.430;18.926;2023-02-01T10:30:24;13.70;;;6.43;;
39486;SDS011;25173;50.430;18.926;2023-02-01T10:33:32;15.30;;;5.85;;
39486;SDS011;25173;50.430;18.926;2023-02-01T10:36:35;15.52;;;5.93;;
39486;SDS011;25173;50.430;18.926;2023-02-01T10:39:41;11.63;;;6.20;;
39486;SDS011;25173;50.430;18.926;2023-02-01T10:42:41;12.00;;;5.22;;
39486;SDS011;25173;50.430;18.926;2023-02-01T10:45:43;12.52;;;5.47;;
39486;SDS011;25173;50.430;18.926;2023-02-01T10:48:44;10.82;;;5.47;;
39486;SDS011;25173;50.430;18.926;2023-02-01T10:51:47;12.45;;;4.55;;
39486;SDS011;25173;50.430;18.926;2023-02-01T10:54:53;32.00;;;13.10;;
39486;SDS011;25173;50.430;18.926;2023-02-01T10:57:57;19.05;;;7.93;;
39486;SDS011;25173;50.430;18.926;2023-02-01T11:01:00;100.60;;;32.33;;
39486;SDS011;25173;50.430;18.926;2023-02-01T11:04:04;108.28;;;34.05;;
39486;SDS011;25173;50.430;18.926;2023-02-01T11:10:38;84.10;;;30.25;;
39486;SDS011;25173;50.430;18.926;2023-02-01T11:13:41;85.38;;;28.38;;
39486;SDS011;25173;50.430;18.926;2023-02-01T11:16:43;51.50;;;16.30;;
39486;SDS011;25173;50.430;18.926;2023-02-01T11:19:56;61.13;;;21.20;;
39486;SDS011;25173;50.430;18.926;2023-02-01T11:22:59;81.53;;;26.23;;
39486;SDS011;25173;50.430;18.926;2023-02-01T11:26:01;23.85;;;9.90;;
39486;SDS011;25173;50.430;18.926;2023-02-01T11:29:11;23.50;;;9.63;;
39486;SDS011;25173;50.430;18.926;2023-02-01T11:32:18;23.23;;;8.98;;
39486;SDS011;25173;50.430;18.926;2023-02-01T11:35:22;14.05;;;6.85;;
39486;SDS011;25173;50.430;18.926;2023-02-01T11:41:31;25.30;;;10.95;;
39486;SDS011;25173;50.430;18.926;2023-02-01T11:44:40;40.58;;;15.70;;
39486;SDS011;25173;50.430;18.926;2023-02-01T11:47:42;15.75;;;6.70;;
39486;SDS011;25173;50.430;18.926;2023-02-01T11:50:56;29.40;;;11.55;;
39486;SDS011;25173;50.430;18.926;2023-02-01T12:04:39;15.52;;;5.57;;
39486;SDS011;25173;50.430;18.926;2023-02-01T12:24:25;23.80;;;11.98;;
39486;SDS011;25173;50.430;18.926;2023-02-01T12:44:52;7.30;;;4.20;;
39486;SDS011;25173;50.430;18.926;2023-02-01T12:48:06;10.68;;;4.90;;
39486;SDS011;25173;50.430;18.926;2023-02-01T12:51:33;7.30;;;4.20;;
39486;SDS011;25173;50.430;18.926;2023-02-01T12:54:40;9.35;;;4.65;;
39486;SDS011;25173;50.430;18.926;2023-02-01T12:57:47;12.13;;;5.70;;
39486;SDS011;25173;50.430;18.926;2023-02-01T13:00:54;10.90;;;4.72;;
39486;SDS011;25173;50.430;18.926;2023-02-01T13:11:14;13.68;;;6.50;;
39486;SDS011;25173;50.430;18.926;2023-02-01T13:14:37;6.45;;;3.55;;
39486;SDS011;25173;50.430;18.926;2023-02-01T13:17:43;8.05;;;3.63;;
39486;SDS011;25173;50.430;18.926;2023-02-01T13:23:54;8.05;;;4.00;;
39486;SDS011;25173;50.430;18.926;2023-02-01T13:26:55;12.57;;;6.28;;
39486;SDS011;25173;50.430;18.926;2023-02-01T13:30:05;30.05;;;14.35;;
39486;SDS011;25173;50.430;18.926;2023-02-01T13:33:32;25.60;;;11.18;;
39486;SDS011;25173;50.430;18.926;2023-02-01T13:43:48;39.25;;;11.10;;
39486;SDS011;25173;50.430;18.926;2023-02-01T13:46:53;25.13;;;10.98;;
39486;SDS011;25173;50.430;18.926;2023-02-01T13:50:03;7.97;;;3.65;;
39486;SDS011;25173;50.430;18.926;2023-02-01T13:56:13;18.90;;;8.70;;
39486;SDS011;25173;50.430;18.926;2023-02-01T14:08:42;5.28;;;3.13;;
39486;SDS011;25173;50.430;18.926;2023-02-01T14:11:47;15.85;;;8.18;;
39486;SDS011;25173;50.430;18.926;2023-02-01T14:14:50;15.02;;;7.18;;
39486;SDS011;25173;50.430;18.926;2023-02-01T14:17:51;10.68;;;5.40;;
39486;SDS011;25173;50.430;18.926;2023-02-01T14:20:57;5.82;;;3.28;;
39486;SDS011;25173;50.430;18.926;2023-02-01T14:30:14;10.10;;;5.88;;
39486;SDS011;25173;50.430;18.926;2023-02-01T14:33:23;9.30;;;5.18;;
39486;SDS011;25173;50.430;18.926;2023-02-01T14:36:26;29.83;;;15.43;;
39486;SDS011;25173;50.430;18.926;2023-02-01T14:39:48;25.67;;;13.23;;
39486;SDS011;25173;50.430;18.926;2023-02-01T14:42:50;13.35;;;6.88;;
39486;SDS011;25173;50.430;18.926;2023-02-01T14:45:52;14.43;;;6.78;;
39486;SDS011;25173;50.430;18.926;2023-02-01T14:48:53;45.80;;;21.52;;
39486;SDS011;25173;50.430;18.926;2023-02-01T14:51:54;34.88;;;18.60;;
39486;SDS011;25173;50.430;18.926;2023-02-01T14:54:59;71.93;;;32.95;;
39486;SDS011;25173;50.430;18.926;2023-02-01T14:58:06;24.27;;;12.38;;
39486;SDS011;25173;50.430;18.926;2023-02-01T15:01:21;47.15;;;25.20;;
39486;SDS011;25173;50.430;18.926;2023-02-01T15:04:26;49.55;;;23.20;;
39486;SDS011;25173;50.430;18.926;2023-02-01T15:07:27;39.50;;;17.15;;
39486;SDS011;25173;50.430;18.926;2023-02-01T15:10:30;70.68;;;32.13;;
39486;SDS011;25173;50.430;18.926;2023-02-01T15:13:32;86.93;;;39.25;;
39486;SDS011;25173;50.430;18.926;2023-02-01T15:16:33;66.88;;;31.80;;
39486;SDS011;25173;50.430;18.926;2023-02-01T15:19:33;30.75;;;14.70;;
39486;SDS011;25173;50.430;18.926;2023-02-01T15:22:34;29.30;;;12.70;;
39486;SDS011;25173;50.430;18.926;2023-02-01T15:25:36;16.20;;;8.57;;
39486;SDS011;25173;50.430;18.926;2023-02-01T15:28:38;21.75;;;9.50;;
39486;SDS011;25173;50.430;18.926;2023-02-01T15:34:46;27.15;;;12.82;;
39486;SDS011;25173;50.430;18.926;2023-02-01T15:37:48;23.30;;;11.43;;
39486;SDS011;25173;50.430;18.926;2023-02-01T15:44:07;53.42;;;22.35;;
39486;SDS011;25173;50.430;18.926;2023-02-01T15:47:26;41.10;;;15.77;;
39486;SDS011;25173;50.430;18.926;2023-02-01T15:50:30;26.83;;;11.70;;
39486;SDS011;25173;50.430;18.926;2023-02-01T15:53:32;46.78;;;19.20;;
39486;SDS011;25173;50.430;18.926;2023-02-01T15:56:33;33.53;;;15.80;;
39486;SDS011;25173;50.430;18.926;2023-02-01T15:59:40;35.85;;;15.43;;
39486;SDS011;25173;50.430;18.926;2023-02-01T16:02:58;23.52;;;10.63;;
39486;SDS011;25173;50.430;18.926;2023-02-01T16:06:00;11.23;;;6.57;;
39486;SDS011;25173;50.430;18.926;2023-02-01T16:09:09;21.42;;;10.02;;
39486;SDS011;25173;50.430;18.926;2023-02-01T16:15:34;39.60;;;17.92;;
39486;SDS011;25173;50.430;18.926;2023-02-01T16:18:34;22.08;;;10.98;;
39486;SDS011;25173;50.430;18.926;2023-02-01T16:21:35;14.48;;;7.65;;
39486;SDS011;25173;50.430;18.926;2023-02-01T16:24:36;10.48;;;5.72;;
39486;SDS011;25173;50.430;18.926;2023-02-01T16:27:36;12.52;;;6.68;;
39486;SDS011;25173;50.430;18.926;2023-02-01T16:30:37;13.80;;;7.20;;
39486;SDS011;25173;50.430;18.926;2023-02-01T16:33:38;28.85;;;13.52;;
39486;SDS011;25173;50.430;18.926;2023-02-01T16:36:38;44.50;;;21.45;;
39486;SDS011;25173;50.430;18.926;2023-02-01T16:39:39;123.18;;;57.30;;
39486;SDS011;25173;50.430;18.926;2023-02-01T16:42:40;98.95;;;45.65;;
39486;SDS011;25173;50.430;18.926;2023-02-01T16:45:41;26.05;;;12.75;;
39486;SDS011;25173;50.430;18.926;2023-02-01T16:48:50;53.28;;;28.45;;
39486;SDS011;25173;50.430;18.926;2023-02-01T16:51:55;114.68;;;59.50;;
39486;SDS011;25173;50.430;18.926;2023-02-01T16:54:58;141.32;;;68.40;;
39486;SDS011;25173;50.430;18.926;2023-02-01T16:57:58;32.50;;;18.65;;
39486;SDS011;25173;50.430;18.926;2023-02-01T17:00:59;19.02;;;12.50;;
39486;SDS011;25173;50.430;18.926;2023-02-01T17:04:00;26.75;;;15.55;;
39486;SDS011;25173;50.430;18.926;2023-02-01T17:07:00;48.72;;;27.25;;
39486;SDS011;25173;50.430;18.926;2023-02-01T17:10:14;45.00;;;24.73;;
39486;SDS011;25173;50.430;18.926;2023-02-01T17:13:22;52.60;;;29.25;;
39486;SDS011;25173;50.430;18.926;2023-02-01T17:16:26;83.45;;;49.10;;
39486;SDS011;25173;50.430;18.926;2023-02-01T17:19:29;94.78;;;41.38;;
39486;SDS011;25173;50.430;18.926;2023-02-01T17:22:29;92.03;;;39.35;;
39486;SDS011;25173;50.430;18.926;2023-02-01T17:25:30;27.40;;;14.00;;
39486;SDS011;25173;50.430;18.926;2023-02-01T17:28:31;32.05;;;16.00;;
39486;SDS011;25173;50.430;18.926;2023-02-01T17:31:32;168.00;;;64.13;;
39486;SDS011;25173;50.430;18.926;2023-02-01T17:34:36;55.20;;;25.98;;
39486;SDS011;25173;50.430;18.926;2023-02-01T17:37:37;74.20;;;33.03;;
39486;SDS011;25173;50.430;18.926;2023-02-01T17:40:38;96.95;;;39.40;;
39486;SDS011;25173;50.430;18.926;2023-02-01T17:43:39;109.95;;;44.70;;
39486;SDS011;25173;50.430;18.926;2023-02-01T17:46:40;137.10;;;54.40;;
39486;SDS011;25173;50.430;18.926;2023-02-01T17:49:41;110.00;;;45.75;;
39486;SDS011;25173;50.430;18.926;2023-02-01T17:52:42;88.32;;;38.80;;
39486;SDS011;25173;50.430;18.926;2023-02-01T17:55:43;58.28;;;26.05;;
39486;SDS011;25173;50.430;18.926;2023-02-01T17:58:45;36.33;;;18.27;;
39486;SDS011;25173;50.430;18.926;2023-02-01T18:01:46;44.38;;;23.67;;
39486;SDS011;25173;50.430;18.926;2023-02-01T18:04:47;34.95;;;19.70;;
39486;SDS011;25173;50.430;18.926;2023-02-01T18:07:49;57.00;;;26.75;;
39486;SDS011;25173;50.430;18.926;2023-02-01T18:10:55;22.98;;;13.07;;
39486;SDS011;25173;50.430;18.926;2023-02-01T18:14:00;31.20;;;17.75;;
39486;SDS011;25173;50.430;18.926;2023-02-01T18:17:01;55.42;;;25.10;;
39486;SDS011;25173;50.430;18.926;2023-02-01T18:20:02;32.25;;;17.55;;
39486;SDS011;25173;50.430;18.926;2023-02-01T18:23:03;28.88;;;16.65;;
39486;SDS011;25173;50.430;18.926;2023-02-01T18:26:04;18.60;;;10.38;;
39486;SDS011;25173;50.430;18.926;2023-02-01T18:29:05;49.17;;;20.98;;
39486;SDS011;25173;50.430;18.926;2023-02-01T18:32:05;28.70;;;13.73;;
39486;SDS011;25173;50.430;18.926;2023-02-01T18:35:17;30.52;;;13.95;;
39486;SDS011;25173;50.430;18.926;2023-02-01T18:38:22;44.35;;;21.67;;
39486;SDS011;25173;50.430;18.926;2023-02-01T18:41:23;24.80;;;13.30;;
39486;SDS011;25173;50.430;18.926;2023-02-01T18:44:24;28.70;;;13.70;;
39486;SDS011;25173;50.430;18.926;2023-02-01T18:47:25;49.15;;;21.38;;
39486;SDS011;25173;50.430;18.926;2023-02-01T18:50:27;40.13;;;19.52;;
39486;SDS011;25173;50.430;18.926;2023-02-01T18:53:29;43.25;;;18.55;;
39486;SDS011;25173;50.430;18.926;2023-02-01T18:56:30;81.45;;;27.83;;
39486;SDS011;25173;50.430;18.926;2023-02-01T18:59:31;68.88;;;27.98;;
39486;SDS011;25173;50.430;18.926;2023-02-01T19:02:31;95.82;;;38.90;;
39486;SDS011;25173;50.430;18.926;2023-02-01T19:05:32;76.97;;;36.17;;
39486;SDS011;25173;50.430;18.926;2023-02-01T19:08:33;84.00;;;36.20;;
39486;SDS011;25173;50.430;18.926;2023-02-01T19:11:33;59.70;;;30.60;;
39486;SDS011;25173;50.430;18.926;2023-02-01T19:14:34;38.38;;;19.08;;
39486;SDS011;25173;50.430;18.926;2023-02-01T19:17:34;32.17;;;17.33;;
39486;SDS011;25173;50.430;18.926;2023-02-01T19:20:36;14.23;;;8.50;;
39486;SDS011;25173;50.430;18.926;2023-02-01T19:23:40;19.13;;;9.85;;
39486;SDS011;25173;50.430;18.926;2023-02-01T19:26:42;33.20;;;17.13;;
39486;SDS011;25173;50.430;18.926;2023-02-01T19:29:44;24.05;;;13.35;;
39486;SDS011;25173;50.430;18.926;2023-02-01T19:32:46;24.38;;;11.70;;
39486;SDS011;25173;50.430;18.926;2023-02-01T19:35:47;20.13;;;9.60;;
39486;SDS011;25173;50.430;18.926;2023-02-01T19:38:48;18.75;;;9.85;;
39486;SDS011;25173;50.430;18.926;2023-02-01T19:41:49;25.40;;;13.77;;
39486;SDS011;25173;50.430;18.926;2023-02-01T19:44:51;38.95;;;19.88;;
39486;SDS011;25173;50.430;18.926;2023-02-01T19:47:51;43.78;;;21.27;;
39486;SDS011;25173;50.430;18.926;2023-02-01T19:50:53;60.25;;;26.77;;
39486;SDS011;25173;50.430;18.926;2023-02-01T19:53:54;53.78;;;26.38;;
39486;SDS011;25173;50.430;18.926;2023-02-01T19:56:56;34.25;;;17.88;;
39486;SDS011;25173;50.430;18.926;2023-02-01T19:59:57;54.63;;;26.67;;
39486;SDS011;25173;50.430;18.926;2023-02-01T20:02:57;40.92;;;18.88;;
39486;SDS011;25173;50.430;18.926;2023-02-01T20:05:58;22.33;;;11.75;;
39486;SDS011;25173;50.430;18.926;2023-02-01T20:09:01;42.05;;;21.42;;
39486;SDS011;25173;50.430;18.926;2023-02-01T20:12:02;38.38;;;20.30;;